Time;durP1;ratioP1;P1;durP2;ratioP2;P2;SDS_P1;SDS_P2;PMS_P1;PMS_P2;Temp;Humidity;BMP_temperature;BMP_pressure;BME280_temperature;BME280_humidity;BME280_pressure;Samples;Min_cycle;Max_cycle;Signal;HPM_P1;HPM_P2
2023/03/02 00:01:34;;;;;;;23.85;17.05;;;;;;;;;;4983810;28;20042;-77
2023/03/02 00:04:01;;;;;;;23.98;16.33;;;;;;;;;;4986963;28;20030;-77
2023/03/02 00:06:28;;;;;;;22.73;16.60;;;;;;;;;;4983384;28;20443;-78
2023/03/02 00:08:55;;;;;;;31.80;16.63;;;;;;;;;;4986771;28;20029;-77
2023/03/02 00:11:21;;;;;;;22.27;16.95;;;;;;;;;;4980951;28;20189;-78
2023/03/02 00:13:47;;;;;;;25.50;16.25;;;;;;;;;;4969050;28;20360;-77
2023/03/02 00:16:13;;;;;;;23.48;17.13;;;;;;;;;;4970542;28;20030;-77
2023/03/02 00:18:40;;;;;;;23.55;17.60;;;;;;;;;;4984189;28;20110;-77
2023/03/02 00:21:09;;;;;;;24.95;16.58;;;;;;;;;;4985926;28;20038;-77
2023/03/02 00:23:35;;;;;;;25.33;17.95;;;;;;;;;;4968938;28;20047;-78
2023/03/02 00:26:01;;;;;;;33.30;18.15;;;;;;;;;;4981570;28;20031;-76
2023/03/02 00:28:28;;;;;;;25.65;17.33;;;;;;;;;;4983693;28;20046;-79
2023/03/02 00:30:54;;;;;;;26.38;18.50;;;;;;;;;;4977759;28;20379;-79
2023/03/02 00:33:20;;;;;;;26.80;18.77;;;;;;;;;;4980247;28;20077;-79
2023/03/02 00:35:46;;;;;;;27.08;19.00;;;;;;;;;;4984230;28;20047;-79
2023/03/02 00:38:12;;;;;;;31.98;19.63;;;;;;;;;;4987110;28;20023;-77
2023/03/02 00:40:43;;;;;;;26.40;18.27;;;;;;;;;;4981622;28;20034;-78
2023/03/02 00:43:09;;;;;;;27.70;19.88;;;;;;;;;;4984043;28;20041;-78
2023/03/02 00:45:35;;;;;;;26.35;18.80;;;;;;;;;;4966528;28;20523;-78
2023/03/02 00:48:01;;;;;;;28.40;19.85;;;;;;;;;;4981089;28;20511;-80
2023/03/02 00:50:27;;;;;;;24.65;18.88;;;;;;;;;;4981255;28;20117;-77
2023/03/02 00:52:53;;;;;;;30.75;20.85;;;;;;;;;;4969183;28;20471;-78
2023/03/02 00:55:19;;;;;;;32.40;21.40;;;;;;;;;;4989580;28;20027;-77
2023/03/02 00:57:53;;;;;;;29.23;21.15;;;;;;;;;;4989151;28;20030;-78
2023/03/02 01:00:20;;;;;;;31.50;21.75;;;;;;;;;;4983888;28;20508;-79
2023/03/02 01:02:46;;;;;;;28.88;21.95;;;;;;;;;;4989302;28;20050;-80
2023/03/02 01:05:12;;;;;;;30.17;21.85;;;;;;;;;;4988667;28;20077;-78
2023/03/02 01:07:38;;;;;;;31.45;21.65;;;;;;;;;;4989924;28;20045;-79
2023/03/02 01:10:04;;;;;;;29.63;21.98;;;;;;;;;;4985713;28;20035;-78
2023/03/02 01:12:31;;;;;;;30.58;21.40;;;;;;;;;;4991083;28;20081;-78
2023/03/02 01:14:57;;;;;;;31.75;21.70;;;;;;;;;;4985236;28;20102;-78
2023/03/02 01:17:25;;;;;;;31.17;21.83;;;;;;;;;;4986639;28;20035;-78
2023/03/02 01:19:51;;;;;;;32.25;21.85;;;;;;;;;;4982292;28;20034;-78
2023/03/02 01:22:20;;;;;;;26.98;20.10;;;;;;;;;;4989660;28;20050;-78
2023/03/02 01:24:46;;;;;;;35.85;21.95;;;;;;;;;;4972952;28;20486;-77
2023/03/02 01:27:12;;;;;;;26.20;19.70;;;;;;;;;;4988100;28;20443;-78
2023/03/02 01:29:38;;;;;;;26.45;19.98;;;;;;;;;;4990325;28;20031;-78
2023/03/02 01:32:04;;;;;;;26.58;19.40;;;;;;;;;;4984622;28;20376;-78
2023/03/02 01:34:30;;;;;;;26.15;20.00;;;;;;;;;;4984925;28;20038;-77
2023/03/02 01:36:57;;;;;;;26.90;19.98;;;;;;;;;;4987740;28;20114;-78
2023/03/02 01:39:23;;;;;;;25.52;18.08;;;;;;;;;;4989940;28;20104;-78
2023/03/02 01:41:50;;;;;;;28.58;20.48;;;;;;;;;;4986209;28;20093;-78
2023/03/02 01:44:35;;;;;;;25.48;18.83;;;;;;;;;;4984016;28;20529;-79
2023/03/02 01:47:02;;;;;;;29.52;19.60;;;;;;;;;;4985965;28;20065;-78
2023/03/02 01:49:29;;;;;;;30.70;20.13;;;;;;;;;;4986958;28;20030;-79
2023/03/02 01:51:55;;;;;;;28.10;19.25;;;;;;;;;;4987714;28;20114;-78
2023/03/02 01:54:22;;;;;;;28.23;18.63;;;;;;;;;;4969518;28;20057;-79
2023/03/02 01:56:50;;;;;;;26.27;18.88;;;;;;;;;;4986372;28;20037;-78
2023/03/02 01:59:18;;;;;;;27.83;18.60;;;;;;;;;;4989745;28;20030;-78
2023/03/02 02:01:46;;;;;;;30.42;19.60;;;;;;;;;;4986800;28;20101;-79
2023/03/02 02:04:13;;;;;;;27.30;18.73;;;;;;;;;;4985637;28;20466;-78
2023/03/02 02:06:41;;;;;;;28.83;19.17;;;;;;;;;;4987901;28;20030;-79
2023/03/02 02:09:09;;;;;;;28.65;20.27;;;;;;;;;;4987354;28;20034;-80
2023/03/02 02:11:35;;;;;;;28.52;20.30;;;;;;;;;;4984337;28;20030;-79
2023/03/02 02:14:02;;;;;;;26.70;18.98;;;;;;;;;;4986249;28;20057;-79
2023/03/02 02:16:31;;;;;;;32.08;21.63;;;;;;;;;;4986463;28;20503;-78
2023/03/02 02:18:57;;;;;;;26.48;19.73;;;;;;;;;;4987446;28;20490;-78
2023/03/02 02:21:24;;;;;;;31.15;21.02;;;;;;;;;;4985621;28;20034;-78
2023/03/02 02:23:54;;;;;;;31.70;20.42;;;;;;;;;;4985756;28;20023;-78
2023/03/02 02:26:29;;;;;;;31.88;20.73;;;;;;;;;;4986887;28;20471;-77
2023/03/02 02:29:07;;;;;;;34.00;20.35;;;;;;;;;;4986897;28;20026;-78
2023/03/02 02:31:35;;;;;;;30.55;19.85;;;;;;;;;;4984075;28;20525;-78
2023/03/02 02:34:05;;;;;;;30.20;19.55;;;;;;;;;;4988211;28;20120;-78
2023/03/02 02:36:34;;;;;;;27.48;19.75;;;;;;;;;;4984913;28;20081;-79
2023/03/02 02:39:02;;;;;;;28.90;19.65;;;;;;;;;;4986175;28;20026;-79
2023/03/02 02:41:31;;;;;;;27.75;19.58;;;;;;;;;;4985993;28;20479;-78
2023/03/02 02:43:57;;;;;;;32.58;21.02;;;;;;;;;;4986793;28;20088;-79
2023/03/02 02:46:23;;;;;;;36.15;20.70;;;;;;;;;;4983740;28;20141;-78
2023/03/02 02:48:49;;;;;;;28.83;18.98;;;;;;;;;;4984694;28;20046;-78
2023/03/02 02:51:18;;;;;;;30.08;20.05;;;;;;;;;;4984926;28;20110;-78
2023/03/02 02:54:00;;;;;;;32.08;20.83;;;;;;;;;;4982430;28;20042;-78
2023/03/02 02:56:28;;;;;;;33.22;21.13;;;;;;;;;;4971111;28;20499;-78
2023/03/02 02:58:55;;;;;;;31.70;21.17;;;;;;;;;;4969861;28;20018;-78
2023/03/02 03:01:24;;;;;;;31.48;20.85;;;;;;;;;;4981530;28;20030;-79
2023/03/02 03:03:52;;;;;;;30.73;19.73;;;;;;;;;;4970929;28;20528;-79
2023/03/02 03:06:22;;;;;;;31.15;19.65;;;;;;;;;;4985759;28;20042;-79
2023/03/02 03:08:50;;;;;;;30.15;19.88;;;;;;;;;;4984262;28;20026;-79
2023/03/02 03:11:23;;;;;;;34.63;20.75;;;;;;;;;;4968619;28;20037;-79
2023/03/02 03:13:55;;;;;;;31.60;20.42;;;;;;;;;;4987977;28;20034;-79
2023/03/02 03:16:21;;;;;;;28.42;19.58;;;;;;;;;;4988388;28;20028;-78
2023/03/02 03:18:47;;;;;;;32.42;19.88;;;;;;;;;;4979179;28;20057;-79
2023/03/02 03:21:13;;;;;;;32.97;21.23;;;;;;;;;;4983994;28;20026;-78
2023/03/02 03:23:39;;;;;;;29.40;20.30;;;;;;;;;;4969612;28;20512;-79
2023/03/02 03:26:06;;;;;;;30.73;20.23;;;;;;;;;;4988592;28;20137;-79
2023/03/02 03:28:32;;;;;;;33.80;21.23;;;;;;;;;;4982850;28;20508;-78
2023/03/02 03:30:58;;;;;;;38.22;22.13;;;;;;;;;;4969733;28;20030;-78
2023/03/02 03:33:24;;;;;;;31.20;21.92;;;;;;;;;;4984746;28;20030;-78
2023/03/02 03:35:50;;;;;;;39.33;21.92;;;;;;;;;;4984844;28;20038;-78
2023/03/02 03:38:16;;;;;;;37.60;23.08;;;;;;;;;;4981841;28;20038;-77
2023/03/02 03:40:43;;;;;;;41.45;24.08;;;;;;;;;;4979405;28;20034;-76
2023/03/02 03:43:09;;;;;;;38.10;22.73;;;;;;;;;;4982523;28;20053;-76
2023/03/02 03:45:35;;;;;;;39.45;24.75;;;;;;;;;;4978825;28;20120;-82
2023/03/02 03:48:01;;;;;;;47.45;28.48;;;;;;;;;;4987252;28;20132;-83
2023/03/02 03:50:27;;;;;;;42.08;25.45;;;;;;;;;;4954247;28;20049;-83
2023/03/02 03:52:53;;;;;;;36.20;24.08;;;;;;;;;;4983615;28;20030;-78
2023/03/02 03:55:19;;;;;;;38.33;23.98;;;;;;;;;;4983600;28;20387;-76
2023/03/02 03:57:45;;;;;;;39.65;24.67;;;;;;;;;;4970194;28;20037;-76
2023/03/02 04:00:17;;;;;;;40.33;23.70;;;;;;;;;;4985445;28;20034;-77
2023/03/02 04:02:43;;;;;;;32.95;22.20;;;;;;;;;;4970563;28;20057;-77
2023/03/02 04:05:09;;;;;;;40.47;23.55;;;;;;;;;;4983460;28;20030;-76
2023/03/02 04:07:36;;;;;;;40.35;25.33;;;;;;;;;;4983688;28;20045;-75
2023/03/02 04:10:02;;;;;;;42.85;25.25;;;;;;;;;;4983480;28;20045;-77
2023/03/02 04:12:33;;;;;;;40.92;24.15;;;;;;;;;;4986283;28;20052;-76
2023/03/02 04:14:59;;;;;;;42.67;25.23;;;;;;;;;;4982392;28;20387;-76
2023/03/02 04:17:25;;;;;;;44.10;27.23;;;;;;;;;;4984329;28;20046;-77
2023/03/02 04:19:52;;;;;;;46.72;26.38;;;;;;;;;;4963357;28;20441;-76
2023/03/02 04:22:18;;;;;;;45.40;26.85;;;;;;;;;;4984579;28;20035;-76
2023/03/02 04:24:45;;;;;;;44.72;25.90;;;;;;;;;;4967569;28;20027;-76
2023/03/02 04:27:11;;;;;;;51.67;26.70;;;;;;;;;;4980363;28;20031;-77
2023/03/02 04:29:37;;;;;;;46.00;26.58;;;;;;;;;;4985491;28;20110;-76
2023/03/02 04:32:03;;;;;;;39.08;25.27;;;;;;;;;;4987152;28;20480;-76
2023/03/02 04:34:29;;;;;;;43.78;24.33;;;;;;;;;;4987819;28;20662;-76
2023/03/02 04:36:55;;;;;;;40.28;24.38;;;;;;;;;;4985147;28;21021;-77
2023/03/02 04:39:21;;;;;;;45.60;27.55;;;;;;;;;;4985258;28;20049;-74
2023/03/02 04:41:48;;;;;;;47.15;27.77;;;;;;;;;;4982843;28;20034;-77
2023/03/02 04:44:14;;;;;;;41.60;23.90;;;;;;;;;;4970761;28;20490;-74
2023/03/02 04:46:40;;;;;;;41.60;23.85;;;;;;;;;;4991020;28;20406;-76
2023/03/02 04:49:07;;;;;;;39.20;25.13;;;;;;;;;;4988164;28;20129;-78
2023/03/02 04:51:36;;;;;;;44.17;24.50;;;;;;;;;;4985510;28;20045;-78
2023/03/02 04:54:22;;;;;;;37.28;23.52;;;;;;;;;;4988365;28;20113;-78
2023/03/02 04:56:50;;;;;;;38.97;22.80;;;;;;;;;;4987245;28;20034;-78
2023/03/02 04:59:17;;;;;;;35.85;22.60;;;;;;;;;;4982474;28;20014;-78
2023/03/02 05:01:43;;;;;;;42.00;24.10;;;;;;;;;;4986455;28;20042;-78
2023/03/02 05:04:10;;;;;;;39.53;23.63;;;;;;;;;;4988864;28;20092;-79
2023/03/02 05:06:36;;;;;;;36.10;22.60;;;;;;;;;;4990298;28;20053;-79
2023/03/02 05:09:03;;;;;;;39.50;21.67;;;;;;;;;;4989114;28;20030;-80
2023/03/02 05:11:29;;;;;;;49.63;21.45;;;;;;;;;;4986772;28;20034;-79
2023/03/02 05:13:57;;;;;;;61.53;21.80;;;;;;;;;;4984658;28;20035;-78
2023/03/02 05:16:24;;;;;;;67.80;23.27;;;;;;;;;;4985310;28;20085;-78
2023/03/02 05:18:50;;;;;;;62.08;23.05;;;;;;;;;;4970685;28;20030;-78
2023/03/02 05:21:16;;;;;;;52.42;21.73;;;;;;;;;;4977384;28;20050;-78
2023/03/02 05:23:43;;;;;;;43.25;21.55;;;;;;;;;;4984419;28;20034;-78
2023/03/02 05:26:09;;;;;;;70.95;21.98;;;;;;;;;;4983562;28;20541;-78
2023/03/02 05:28:35;;;;;;;62.13;22.65;;;;;;;;;;4968785;28;20034;-78
2023/03/02 05:31:01;;;;;;;46.55;22.15;;;;;;;;;;4986093;28;20037;-78
2023/03/02 05:33:28;;;;;;;39.70;21.15;;;;;;;;;;4987667;28;20796;-78
2023/03/02 05:35:54;;;;;;;87.57;23.63;;;;;;;;;;4986582;28;20085;-78
2023/03/02 05:38:21;;;;;;;50.58;22.20;;;;;;;;;;4988581;28;20022;-78
2023/03/02 05:40:47;;;;;;;60.08;24.17;;;;;;;;;;4986317;28;20034;-78
2023/03/02 05:43:15;;;;;;;47.20;23.05;;;;;;;;;;4989610;28;20037;-78
2023/03/02 05:45:41;;;;;;;74.30;23.75;;;;;;;;;;4987139;28;20042;-77
2023/03/02 05:48:07;;;;;;;109.88;24.67;;;;;;;;;;4987586;28;21964;-78
2023/03/02 05:50:34;;;;;;;77.13;21.75;;;;;;;;;;4967295;28;20027;-77
2023/03/02 05:53:01;;;;;;;103.68;24.63;;;;;;;;;;4989248;28;20034;-77
2023/03/02 05:55:27;;;;;;;131.85;26.33;;;;;;;;;;4988073;28;20022;-77
2023/03/02 05:57:53;;;;;;;121.05;22.02;;;;;;;;;;4987212;28;20453;-77
2023/03/02 06:00:20;;;;;;;61.42;21.85;;;;;;;;;;4965131;28;20086;-77
2023/03/02 06:02:46;;;;;;;88.50;22.77;;;;;;;;;;4989451;28;20490;-78
2023/03/02 06:05:17;;;;;;;55.55;21.48;;;;;;;;;;4986473;28;20482;-77
2023/03/02 06:07:43;;;;;;;89.35;24.55;;;;;;;;;;4986956;28;20034;-77
2023/03/02 06:10:11;;;;;;;50.88;24.02;;;;;;;;;;4984448;28;20042;-78
2023/03/02 06:12:37;;;;;;;101.18;24.98;;;;;;;;;;4987456;28;20045;-77
2023/03/02 06:15:07;;;;;;;121.40;24.58;;;;;;;;;;4990210;28;20452;-77
2023/03/02 06:17:33;;;;;;;73.75;22.30;;;;;;;;;;4986458;28;20027;-77
2023/03/02 06:19:59;;;;;;;82.55;22.55;;;;;;;;;;4985240;28;20026;-77
2023/03/02 06:22:26;;;;;;;63.20;22.42;;;;;;;;;;4985330;28;20376;-77
2023/03/02 06:24:55;;;;;;;41.55;22.02;;;;;;;;;;4986761;28;20502;-78
2023/03/02 06:27:21;;;;;;;52.50;22.73;;;;;;;;;;4983584;28;20023;-77
2023/03/02 06:29:48;;;;;;;126.55;25.45;;;;;;;;;;4967242;28;20033;-77
2023/03/02 06:32:14;;;;;;;51.50;22.17;;;;;;;;;;4984644;28;20034;-77
2023/03/02 06:34:40;;;;;;;80.93;23.10;;;;;;;;;;4971299;28;20085;-78
2023/03/02 06:37:06;;;;;;;62.60;23.52;;;;;;;;;;4984522;28;20038;-78
2023/03/02 06:39:33;;;;;;;88.65;24.73;;;;;;;;;;4986962;28;20035;-78
2023/03/02 06:41:59;;;;;;;94.47;27.17;;;;;;;;;;4982987;28;20054;-78
2023/03/02 06:44:26;;;;;;;76.60;23.08;;;;;;;;;;4988735;28;20033;-78
2023/03/02 06:46:52;;;;;;;103.78;25.38;;;;;;;;;;4981388;28;20479;-78
2023/03/02 06:49:18;;;;;;;65.95;22.73;;;;;;;;;;4983758;28;20034;-78
2023/03/02 06:51:44;;;;;;;77.15;24.50;;;;;;;;;;4983778;28;20490;-78
2023/03/02 06:54:10;;;;;;;85.15;25.25;;;;;;;;;;4988010;28;20380;-78
2023/03/02 06:56:36;;;;;;;82.55;24.80;;;;;;;;;;4986188;28;20952;-78
2023/03/02 06:59:02;;;;;;;156.13;25.70;;;;;;;;;;4985850;28;20494;-78
2023/03/02 07:01:34;;;;;;;71.38;23.80;;;;;;;;;;4966664;28;20506;-78
2023/03/02 07:04:00;;;;;;;69.45;23.60;;;;;;;;;;4983945;28;20824;-78
2023/03/02 07:06:26;;;;;;;74.78;25.27;;;;;;;;;;4982919;28;20044;-79
2023/03/02 07:08:54;;;;;;;194.35;27.42;;;;;;;;;;4985288;28;20599;-79
2023/03/02 07:11:20;;;;;;;80.05;23.98;;;;;;;;;;4988175;28;20026;-78
2023/03/02 07:13:46;;;;;;;126.15;27.77;;;;;;;;;;4970120;28;20045;-78
2023/03/02 07:16:13;;;;;;;97.60;24.83;;;;;;;;;;4987365;28;20030;-77
2023/03/02 07:18:39;;;;;;;60.35;24.23;;;;;;;;;;4985420;28;20058;-78
2023/03/02 07:21:06;;;;;;;94.35;23.83;;;;;;;;;;4986907;28;20030;-79
2023/03/02 07:23:32;;;;;;;127.53;25.00;;;;;;;;;;4981549;28;20053;-77
2023/03/02 07:25:58;;;;;;;119.03;25.25;;;;;;;;;;4986820;28;20049;-78
2023/03/02 07:28:25;;;;;;;97.80;25.20;;;;;;;;;;4985491;28;20034;-78
2023/03/02 07:30:54;;;;;;;78.35;23.10;;;;;;;;;;4982775;28;20030;-78
2023/03/02 07:33:21;;;;;;;55.70;24.33;;;;;;;;;;4982886;28;20038;-77
2023/03/02 07:35:47;;;;;;;91.57;26.85;;;;;;;;;;4983504;28;20053;-77
2023/03/02 07:38:13;;;;;;;70.57;22.33;;;;;;;;;;4982271;28;20042;-78
2023/03/02 07:40:40;;;;;;;71.05;22.67;;;;;;;;;;4975290;28;20082;-81
2023/03/02 07:43:06;;;;;;;121.70;23.13;;;;;;;;;;4980666;28;20144;-80
2023/03/02 07:45:32;;;;;;;61.75;21.77;;;;;;;;;;4978692;28;20486;-79
2023/03/02 07:47:58;;;;;;;73.05;23.77;;;;;;;;;;4982535;28;20062;-78
2023/03/02 07:50:25;;;;;;;116.80;23.25;;;;;;;;;;4979991;28;20387;-79
2023/03/02 07:52:51;;;;;;;82.68;25.48;;;;;;;;;;4980724;28;20740;-79
2023/03/02 07:55:17;;;;;;;108.63;26.88;;;;;;;;;;4978577;28;20042;-81
2023/03/02 07:57:43;;;;;;;64.72;26.45;;;;;;;;;;4992999;28;20050;-81
2023/03/02 08:00:09;;;;;;;78.30;24.27;;;;;;;;;;4985183;28;20031;-80
2023/03/02 08:02:35;;;;;;;70.45;22.48;;;;;;;;;;4986574;28;20494;-80
2023/03/02 08:05:01;;;;;;;68.30;23.15;;;;;;;;;;4988859;28;20487;-81
2023/03/02 08:07:27;;;;;;;66.47;23.20;;;;;;;;;;4987794;28;20042;-78
2023/03/02 08:09:53;;;;;;;74.80;24.17;;;;;;;;;;4977457;28;20037;-79
2023/03/02 08:12:19;;;;;;;72.85;22.08;;;;;;;;;;4995926;28;20034;-78
2023/03/02 08:14:47;;;;;;;50.90;22.25;;;;;;;;;;4978509;28;20034;-77
2023/03/02 08:17:13;;;;;;;53.80;21.88;;;;;;;;;;4990904;28;20030;-79
2023/03/02 08:19:39;;;;;;;42.88;21.20;;;;;;;;;;4995049;28;20038;-76
2023/03/02 08:22:05;;;;;;;50.00;23.20;;;;;;;;;;4995296;28;20247;-78
2023/03/02 08:24:31;;;;;;;45.45;22.63;;;;;;;;;;4994388;28;20022;-79
2023/03/02 08:27:01;;;;;;;58.60;23.38;;;;;;;;;;4981193;28;20089;-82
2023/03/02 08:29:27;;;;;;;55.78;24.67;;;;;;;;;;4984888;28;20038;-80
2023/03/02 08:31:53;;;;;;;60.40;23.58;;;;;;;;;;4982708;28;20027;-79
2023/03/02 08:34:19;;;;;;;44.65;20.95;;;;;;;;;;4989617;28;20039;-77
2023/03/02 08:36:45;;;;;;;45.40;22.08;;;;;;;;;;4992649;28;20482;-78
2023/03/02 08:39:11;;;;;;;54.90;23.23;;;;;;;;;;5013763;28;20053;-78
2023/03/02 08:41:37;;;;;;;45.67;23.10;;;;;;;;;;4985845;28;20031;-78
2023/03/02 08:44:04;;;;;;;46.97;23.42;;;;;;;;;;4982889;28;20112;-79
2023/03/02 08:46:30;;;;;;;39.60;23.08;;;;;;;;;;4981244;28;20062;-78
2023/03/02 08:48:56;;;;;;;38.70;22.20;;;;;;;;;;4979779;28;20447;-78
2023/03/02 08:51:23;;;;;;;45.05;22.55;;;;;;;;;;4984801;28;20037;-78
2023/03/02 08:53:50;;;;;;;41.13;23.15;;;;;;;;;;4983108;28;20046;-76
2023/03/02 08:56:21;;;;;;;39.40;22.02;;;;;;;;;;4983314;28;20031;-77
2023/03/02 08:58:48;;;;;;;40.03;24.33;;;;;;;;;;4986441;28;20475;-75
2023/03/02 09:01:18;;;;;;;43.63;24.70;;;;;;;;;;4981437;28;20043;-74
2023/03/02 09:03:44;;;;;;;40.60;21.73;;;;;;;;;;4983467;28;20104;-73
2023/03/02 09:06:10;;;;;;;65.18;22.50;;;;;;;;;;4985853;28;20172;-77
2023/03/02 09:08:36;;;;;;;50.92;28.27;;;;;;;;;;4987317;28;20398;-77
2023/03/02 09:11:02;;;;;;;50.65;25.35;;;;;;;;;;4985991;28;20397;-72
2023/03/02 09:13:29;;;;;;;46.03;24.45;;;;;;;;;;4969443;28;20044;-77
2023/03/02 09:15:55;;;;;;;44.67;24.17;;;;;;;;;;4984872;28;20038;-76
2023/03/02 09:18:21;;;;;;;51.42;23.40;;;;;;;;;;4982823;28;20030;-74
2023/03/02 09:20:53;;;;;;;36.15;22.70;;;;;;;;;;4981290;28;20487;-77
2023/03/02 09:23:19;;;;;;;37.15;22.40;;;;;;;;;;4984326;28;20919;-77
2023/03/02 09:25:49;;;;;;;38.65;23.08;;;;;;;;;;4982449;28;20565;-76
2023/03/02 09:28:15;;;;;;;37.47;22.75;;;;;;;;;;4984170;28;20030;-75
2023/03/02 09:30:41;;;;;;;36.58;23.45;;;;;;;;;;4978818;28;20066;-79
2023/03/02 09:33:07;;;;;;;42.40;22.70;;;;;;;;;;4984000;28;20498;-76
2023/03/02 09:35:33;;;;;;;45.17;25.77;;;;;;;;;;4985024;28;20058;-79
2023/03/02 09:37:59;;;;;;;34.03;22.17;;;;;;;;;;4966748;28;20062;-76
2023/03/02 09:40:26;;;;;;;38.33;23.70;;;;;;;;;;4966628;28;20037;-77
2023/03/02 09:43:21;;;;;;;33.35;20.73;;;4.20;99.90;;;;;;4985429;28;20046;-77
2023/03/02 09:46:10;;;;;;;30.83;20.88;;;;;;;;;;4981418;28;20034;-75
2023/03/02 09:48:39;;;;;;;31.67;21.45;;;;;;;;;;4944265;28;20050;-74
2023/03/02 09:51:38;;;;;;;32.10;20.02;;;;;;;;;;4943256;28;20130;-76
2023/03/02 09:54:08;;;;;;;36.08;20.88;;;;;;;;;;4942634;28;20046;-77
2023/03/02 09:57:04;;;;;;;32.30;20.88;;;;;;;;;;4935881;28;20050;-75
2023/03/02 09:59:38;;;;;;;33.67;19.45;;;;;;;;;;4941261;28;20045;-75
2023/03/02 10:02:21;;;;;;;28.80;19.48;;;;;;;;;;4940331;28;20043;-77
2023/03/02 10:04:49;;;;;;;37.75;22.25;;;;;;;;;;4943592;29;20027;-81
2023/03/02 10:07:15;;;;;;;37.95;23.63;;;;;;;;;;4942843;28;20034;-78
2023/03/02 10:09:42;;;;;;;30.02;19.40;;;;;;;;;;4943514;28;20496;-74
2023/03/02 10:12:21;;;;;;;29.80;19.88;;;;;;;;;;4943091;28;20039;-76
2023/03/02 10:14:59;;;;;;;30.58;20.33;;;;;;;;;;4945985;29;20105;-78
2023/03/02 10:17:36;;;;;;;30.75;20.40;;;;;;;;;;4943485;28;20043;-74
2023/03/02 10:20:04;;;;;;;28.27;19.35;;;;;;;;;;4944639;28;20078;-78
2023/03/02 10:22:34;;;;;;;27.15;19.27;;;;;;;;;;4947300;28;20039;-76
2023/03/02 10:25:06;;;;;;;29.45;20.60;;;;;;;;;;4945795;28;20035;-78
2023/03/02 10:27:40;;;;;;;27.63;18.73;;;;;;;;;;4944460;28;20027;-76
2023/03/02 10:30:30;;;;;;;31.65;20.45;;;;;;;;;;4942257;28;22420;-76
2023/03/02 10:32:57;;;;;;;27.80;19.15;;;;;;;;;;4936762;28;20084;-74
2023/03/02 10:35:25;;;;;;;30.15;18.42;;;;;;;;;;4942682;28;20031;-75
2023/03/02 10:37:51;;;;;;;28.50;18.27;;;;;;;;;;4941728;28;20114;-74
2023/03/02 10:40:23;;;;;;;28.98;19.35;;;;;;;;;;4948251;28;20023;-76
2023/03/02 10:42:50;;;;;;;25.30;17.75;;;;;;;;;;4951268;28;20035;-75
2023/03/02 10:45:19;;;;;;;24.08;18.67;;;;;;;;;;4945456;28;20080;-75
2023/03/02 10:47:44;;;;;;;30.58;21.73;;;;;;;;;;4975249;28;20054;-79
2023/03/02 10:50:20;;;;;;;32.65;20.60;;;;;;;;;;4985582;28;20451;-75
2023/03/02 10:52:50;;;;;;;23.40;16.13;;;;;;;;;;4967914;28;21013;-77
2023/03/02 10:55:16;;;;;;;21.70;15.00;;;;;;;;;;4983849;28;20035;-74
2023/03/02 10:57:43;;;;;;;22.95;16.15;;;;;;;;;;4979503;28;20030;-75
2023/03/02 11:00:25;;;;;;;22.80;17.05;;;;;;;;;;4985862;28;20097;-75
2023/03/02 11:02:53;;;;;;;20.65;15.98;;;;;;;;;;4961512;28;20050;-75
2023/03/02 11:05:28;;;;;;;23.85;17.15;;;;;;;;;;4984291;28;20034;-74
2023/03/02 11:07:55;;;;;;;22.73;16.52;;;;;;;;;;4962404;28;20486;-77
2023/03/02 11:10:22;;;;;;;23.38;17.77;;;;;;;;;;4967081;28;20066;-77
2023/03/02 11:12:49;;;;;;;24.13;17.25;;;;;;;;;;4979097;28;20041;-76
2023/03/02 11:15:24;;;;;;;23.10;15.95;;;;;;;;;;4989957;28;20532;-76
2023/03/02 11:18:12;;;;;;;21.42;15.73;;;;;;;;;;4989356;28;20039;-76
2023/03/02 11:20:41;;;;;;;20.35;15.57;;;;;;;;;;4991890;28;20126;-76
2023/03/02 11:23:16;;;;;;;18.35;14.55;;;;;;;;;;4991849;28;20073;-75
2023/03/02 11:25:48;;;;;;;17.80;13.98;;;;;;;;;;4989540;28;20038;-75
2023/03/02 11:28:24;;;;;;;18.73;14.33;;;;;;;;;;4981463;28;20050;-76
2023/03/02 11:30:53;;;;;;;16.88;12.15;;;;;;;;;;4987057;28;20029;-76
2023/03/02 11:33:33;;;;;;;22.60;13.32;;;;;;;;;;4986898;28;20388;-76
2023/03/02 11:36:03;;;;;;;16.05;12.57;;;;;;;;;;4980192;28;20034;-75
2023/03/02 11:38:33;;;;;;;15.07;11.45;;;;;;;;;;4983010;28;20050;-77
2023/03/02 11:41:02;;;;;;;17.08;12.82;;;;;;;;;;4963534;28;20141;-74
2023/03/02 11:43:28;;;;;;;17.90;12.30;;;;;;;;;;4982425;28;20509;-73
2023/03/02 11:45:59;;;;;;;18.42;13.13;;;;;;;;;;4984235;28;20043;-74
2023/03/02 11:48:31;;;;;;;18.20;12.45;;;;;;;;;;4966554;28;20066;-75
2023/03/02 11:51:04;;;;;;;17.25;12.05;;;;;;;;;;4955780;28;20483;-74
2023/03/02 11:53:40;;;;;;;16.70;11.90;;;;;;;;;;4973794;28;20027;-76
2023/03/02 11:56:06;;;;;;;18.92;12.35;;;;;;;;;;4984760;28;23408;-77
2023/03/02 11:58:32;;;;;;;19.70;12.82;;;;;;;;;;4979530;28;20037;-75
2023/03/02 12:00:59;;;;;;;15.85;12.30;;;;;;;;;;4982068;28;20053;-73
2023/03/02 12:03:31;;;;;;;17.10;12.45;;;;;;;;;;4981960;28;20034;-73
2023/03/02 12:06:06;;;;;;;16.80;12.90;;;;;;;;;;4983690;28;20097;-75
2023/03/02 12:08:32;;;;;;;19.35;12.30;;;;;;;;;;4982547;28;20046;-76
2023/03/02 12:11:04;;;;;;;34.30;21.13;;;;;;;;;;4981783;28;20058;-78
2023/03/02 12:13:30;;;;;;;21.63;14.57;;;;;;;;;;4972705;28;20149;-81
2023/03/02 12:15:56;;;;;;;13.60;9.73;;;;;;;;;;4982400;28;20067;-82
2023/03/02 12:18:22;;;;;;;17.20;10.45;;;;;;;;;;4961529;28;20026;-76
2023/03/02 12:21:08;;;;;;;15.73;10.63;;;;;;;;;;4980351;28;20031;-75
2023/03/02 12:23:52;;;;;;;16.27;11.30;;;;;;;;;;4976541;28;20034;-79
2023/03/02 12:26:19;;;;;;;19.77;11.60;;;;;;;;;;4985065;28;20042;-76
2023/03/02 12:29:03;;;;;;;14.48;10.25;;;;;;;;;;4989188;28;20477;-76
2023/03/02 12:31:59;;;;;;;15.50;10.02;;;;;;;;;;4988108;28;20423;-74
2023/03/02 12:34:30;;;;;;;15.60;10.88;;;;;;;;;;4979421;28;20030;-77
2023/03/02 12:36:59;;;;;;;14.60;9.50;;;;;;;;;;4991142;28;20090;-78
2023/03/02 12:39:58;;;;;;;17.65;10.07;;;;;;;;;;4984544;28;20399;-76
2023/03/02 12:42:42;;;;;;;17.17;10.77;;;;;;;;;;4948883;28;20399;-76
2023/03/02 12:45:20;;;;;;;14.68;10.30;;;;;;;;;;4986326;28;20471;-77
2023/03/02 12:47:48;;;;;;;16.83;11.20;;;;;;;;;;4972210;28;20051;-76
2023/03/02 12:50:24;;;;;;;14.10;9.88;;;;;;;;;;4973136;28;20037;-77
2023/03/02 12:53:01;;;;;;;19.35;11.32;;;;;;;;;;4994120;28;20367;-77
2023/03/02 12:55:28;;;;;;;17.85;11.60;;;;;;;;;;4986514;28;20031;-77
2023/03/02 12:57:55;;;;;;;18.67;12.07;;;;;;;;;;4977228;28;20403;-77
2023/03/02 13:00:23;;;;;;;24.65;13.02;;;;;;;;;;4974410;28;20050;-77
2023/03/02 13:02:51;;;;;;;25.17;14.85;;;;;;;;;;4975222;28;20400;-77
2023/03/02 13:05:28;;;;;;;28.88;16.90;;;;;;;;;;4970907;28;20031;-75
2023/03/02 13:07:59;;;;;;;29.80;18.70;;;;;;;;;;4977230;28;20058;-77
2023/03/02 13:10:42;;;;;;;29.25;18.52;;;;;;;;;;4994854;28;20483;-76
2023/03/02 13:13:17;;;;;;;23.92;15.38;;;;;;;;;;4965339;28;20039;-77
2023/03/02 13:15:50;;;;;;;27.83;16.42;;;;;;;;;;4991219;28;20027;-74
2023/03/02 13:18:16;;;;;;;23.52;14.82;;;;;;;;;;4993546;28;20027;-74
2023/03/02 13:20:42;;;;;;;27.00;16.05;;;;;;;;;;4972793;28;20031;-74
2023/03/02 13:23:15;;;;;;;23.45;14.18;;;;;;;;;;4985369;28;20097;-74
2023/03/02 13:25:49;;;;;;;21.83;13.85;;;;;;;;;;4990808;28;20565;-75
2023/03/02 13:28:27;;;;;;;20.10;12.68;;;;;;;;;;4994143;28;20027;-74
2023/03/02 13:31:04;;;;;;;20.02;14.15;;;;;;;;;;4990922;28;20061;-74
2023/03/02 13:33:31;;;;;;;20.70;13.10;;;;;;;;;;4992662;28;20061;-73
2023/03/02 13:35:57;;;;;;;18.58;12.00;;;;;;;;;;4991937;28;20030;-74
2023/03/02 13:38:26;;;;;;;20.92;12.18;;;;;;;;;;4989457;28;20033;-74
2023/03/02 13:40:53;;;;;;;16.95;11.45;;;;;;;;;;4976142;28;20056;-74
2023/03/02 13:43:20;;;;;;;17.33;12.50;;;;;;;;;;4974489;28;20031;-74
2023/03/02 13:45:52;;;;;;;17.20;11.30;;;;;;;;;;4987535;28;20027;-75
2023/03/02 13:48:18;;;;;;;16.67;11.63;;;;;;;;;;4987346;28;20050;-74
2023/03/02 13:51:11;;;;;;;15.50;10.18;;;;;;;;;;4994171;28;20034;-74
2023/03/02 13:53:39;;;;;;;13.82;10.10;;;;;;;;;;4989704;28;20054;-74
2023/03/02 13:56:05;;;;;;;15.38;9.90;;;;;;;;;;4992559;28;20106;-76
2023/03/02 13:58:33;;;;;;;11.85;8.88;;;;;;;;;;4975630;28;20573;-76
2023/03/02 14:00:59;;;;;;;12.32;8.63;;;;;;;;;;4990434;28;20073;-73
2023/03/02 14:03:27;;;;;;;11.68;9.13;;;;;;;;;;4983713;28;20555;-74
2023/03/02 14:05:54;;;;;;;13.25;9.60;;;;;;;;;;4994083;28;20080;-74
2023/03/02 14:08:20;;;;;;;13.10;9.65;;;;;;;;;;4960297;28;20463;-74
2023/03/02 14:10:47;;;;;;;13.50;9.38;;;;;;;;;;4992029;28;20034;-74
2023/03/02 14:13:18;;;;;;;13.57;8.80;;;;;;;;;;4988601;28;20065;-75
2023/03/02 14:15:47;;;;;;;11.98;8.95;;;;;;;;;;4965098;28;20049;-75
2023/03/02 14:18:22;;;;;;;12.57;9.05;;;;;;;;;;4973968;28;20086;-75
2023/03/02 14:20:48;;;;;;;14.07;9.65;;;;;;;;;;4990064;28;20031;-75
2023/03/02 14:23:16;;;;;;;14.45;9.98;;;;;;;;;;4991416;28;20045;-75
2023/03/02 14:25:42;;;;;;;14.90;10.45;;;;;;;;;;4975784;28;20045;-75